Main page
METAR-TAF:

METAR-TAF

Airports :

Mitiga International Airport

Tripoli, Libya

latitude: 32-54N, longitude: 13-17E, elevation: 11 m

METAR: missing

Time: 23:22 (21:22 UTC)

Forecast

The report was made 4 hours and 22 minutes ago, at 17:00 UTC
Forecast valid from 28 at 18 UTC to 29 at 18 UTC
Wind 15 kt from the North/Northwest
Visibility: 8000 m
Scattered clouds at a height of 2500 ft
Scattered clouds at a height of 8000 ft
Temporary
from 28 at 18 UTC to 29 at 18 UTC
Visibility: 5000 m
Few clouds at a height of 2200 ft, Towering cumulus.
Broken clouds at a height of 2000 ft
Broken clouds at a height of 7000 ft
rain showers
Becoming
from 29 at 16 UTC to 29 at 18 UTC
Wind 14 kt from the West

TAF: HLLM 281700Z 2818/2918 33015KT 8000 SCT025 SCT080 TEMPO 2818/2918 5000 SHRA FEW022TCU BKN020 BKN070 BECMG 2916/2918 27014KT

Weather observations and forecasts of more than 4000 airports (METAR and TAF reports).

The available stations are represented by yellow and red dots on the map.

Hover mouse over dot to see the name of the station.

Then click to see weather observations and forecasts.

To change the map : click on the green buttons with a black cross to zoom in, on the green button with a dash to zoom out, or on the green arrows for adjacent maps.


METAR-TAF: